sensor_id;sensor_type;location;lat;lon;timestamp;P1;durP1;ratioP1;P2;durP2;ratioP2
13250;SDS011;6692;50.710;7.180;2022-11-25T00:01:54;562.50;;;539.63;;
13250;SDS011;6692;50.710;7.180;2022-11-25T00:03:56;568.70;;;544.80;;
13250;SDS011;6692;50.710;7.180;2022-11-25T00:05:57;570.93;;;547.20;;
13250;SDS011;6692;50.710;7.180;2022-11-25T00:07:57;571.17;;;547.17;;
13250;SDS011;6692;50.710;7.180;2022-11-25T00:09:58;567.43;;;543.47;;
13250;SDS011;6692;50.710;7.180;2022-11-25T00:11:59;570.97;;;547.27;;
13250;SDS011;6692;50.710;7.180;2022-11-25T00:13:59;591.87;;;567.03;;
13250;SDS011;6692;50.710;7.180;2022-11-25T00:16:01;588.93;;;564.10;;
13250;SDS011;6692;50.710;7.180;2022-11-25T00:18:01;574.50;;;550.30;;
13250;SDS011;6692;50.710;7.180;2022-11-25T00:20:02;576.37;;;552.27;;
13250;SDS011;6692;50.710;7.180;2022-11-25T00:22:04;580.17;;;555.77;;
13250;SDS011;6692;50.710;7.180;2022-11-25T00:24:05;581.63;;;557.30;;
13250;SDS011;6692;50.710;7.180;2022-11-25T00:26:07;592.07;;;566.97;;
13250;SDS011;6692;50.710;7.180;2022-11-25T00:28:09;580.67;;;555.83;;
13250;SDS011;6692;50.710;7.180;2022-11-25T00:30:11;582.17;;;557.60;;
13250;SDS011;6692;50.710;7.180;2022-11-25T00:32:12;582.93;;;558.23;;
13250;SDS011;6692;50.710;7.180;2022-11-25T00:34:13;583.87;;;559.27;;
13250;SDS011;6692;50.710;7.180;2022-11-25T00:36:20;589.50;;;564.27;;
13250;SDS011;6692;50.710;7.180;2022-11-25T00:38:16;589.77;;;565.03;;
13250;SDS011;6692;50.710;7.180;2022-11-25T00:40:17;585.97;;;561.20;;
13250;SDS011;6692;50.710;7.180;2022-11-25T00:42:18;588.93;;;563.43;;
13250;SDS011;6692;50.710;7.180;2022-11-25T00:44:24;602.77;;;577.43;;
13250;SDS011;6692;50.710;7.180;2022-11-25T00:46:31;601.43;;;575.93;;
13250;SDS011;6692;50.710;7.180;2022-11-25T00:48:32;621.20;;;594.23;;
13250;SDS011;6692;50.710;7.180;2022-11-25T00:50:32;630.47;;;602.97;;
13250;SDS011;6692;50.710;7.180;2022-11-25T00:52:33;621.80;;;595.10;;
13250;SDS011;6692;50.710;7.180;2022-11-25T00:54:34;635.87;;;607.77;;
13250;SDS011;6692;50.710;7.180;2022-11-25T00:56:34;633.03;;;605.30;;
13250;SDS011;6692;50.710;7.180;2022-11-25T00:58:35;655.07;;;626.20;;
13250;SDS011;6692;50.710;7.180;2022-11-25T01:00:36;655.50;;;626.50;;
13250;SDS011;6692;50.710;7.180;2022-11-25T01:02:36;652.43;;;623.53;;
13250;SDS011;6692;50.710;7.180;2022-11-25T01:04:37;643.63;;;615.07;;
13250;SDS011;6692;50.710;7.180;2022-11-25T01:06:38;637.20;;;609.23;;
13250;SDS011;6692;50.710;7.180;2022-11-25T01:08:39;635.40;;;607.30;;
13250;SDS011;6692;50.710;7.180;2022-11-25T01:10:40;641.60;;;613.67;;
13250;SDS011;6692;50.710;7.180;2022-11-25T01:12:40;633.83;;;605.77;;
13250;SDS011;6692;50.710;7.180;2022-11-25T01:14:41;644.43;;;616.17;;
13250;SDS011;6692;50.710;7.180;2022-11-25T01:16:42;641.83;;;613.23;;
13250;SDS011;6692;50.710;7.180;2022-11-25T01:18:43;645.97;;;617.27;;
13250;SDS011;6692;50.710;7.180;2022-11-25T01:20:43;652.80;;;623.93;;
13250;SDS011;6692;50.710;7.180;2022-11-25T01:22:44;658.17;;;628.70;;
13250;SDS011;6692;50.710;7.180;2022-11-25T01:24:44;659.40;;;629.67;;
13250;SDS011;6692;50.710;7.180;2022-11-25T01:26:45;656.63;;;627.03;;
13250;SDS011;6692;50.710;7.180;2022-11-25T01:28:46;663.70;;;634.30;;
13250;SDS011;6692;50.710;7.180;2022-11-25T01:30:57;670.67;;;640.67;;
13250;SDS011;6692;50.710;7.180;2022-11-25T01:32:48;665.33;;;635.37;;
13250;SDS011;6692;50.710;7.180;2022-11-25T01:34:48;674.20;;;643.57;;
13250;SDS011;6692;50.710;7.180;2022-11-25T01:36:49;678.73;;;648.10;;
13250;SDS011;6692;50.710;7.180;2022-11-25T01:38:51;682.13;;;650.73;;
13250;SDS011;6692;50.710;7.180;2022-11-25T01:40:51;693.77;;;662.30;;
13250;SDS011;6692;50.710;7.180;2022-11-25T01:42:52;688.13;;;655.93;;
13250;SDS011;6692;50.710;7.180;2022-11-25T01:47:11;689.87;;;658.50;;
13250;SDS011;6692;50.710;7.180;2022-11-25T01:51:52;660.13;;;630.50;;
13250;SDS011;6692;50.710;7.180;2022-11-25T01:53:55;687.93;;;656.37;;
13250;SDS011;6692;50.710;7.180;2022-11-25T01:55:57;680.93;;;649.53;;
13250;SDS011;6692;50.710;7.180;2022-11-25T01:57:57;710.60;;;677.97;;
13250;SDS011;6692;50.710;7.180;2022-11-25T01:59:57;693.43;;;661.77;;
13250;SDS011;6692;50.710;7.180;2022-11-25T02:01:57;702.07;;;669.73;;
13250;SDS011;6692;50.710;7.180;2022-11-25T02:03:58;708.07;;;675.27;;
13250;SDS011;6692;50.710;7.180;2022-11-25T02:06:05;700.17;;;668.30;;
13250;SDS011;6692;50.710;7.180;2022-11-25T02:08:05;692.03;;;659.97;;
13250;SDS011;6692;50.710;7.180;2022-11-25T02:10:06;708.60;;;675.67;;
13250;SDS011;6692;50.710;7.180;2022-11-25T02:12:07;700.90;;;668.57;;
13250;SDS011;6692;50.710;7.180;2022-11-25T02:14:07;706.03;;;673.43;;
13250;SDS011;6692;50.710;7.180;2022-11-25T02:16:08;707.57;;;674.47;;
13250;SDS011;6692;50.710;7.180;2022-11-25T02:18:09;709.67;;;676.63;;
13250;SDS011;6692;50.710;7.180;2022-11-25T02:20:11;716.10;;;682.57;;
13250;SDS011;6692;50.710;7.180;2022-11-25T02:22:14;710.33;;;677.37;;
13250;SDS011;6692;50.710;7.180;2022-11-25T02:24:17;724.70;;;690.57;;
13250;SDS011;6692;50.710;7.180;2022-11-25T02:26:18;699.47;;;666.47;;
13250;SDS011;6692;50.710;7.180;2022-11-25T02:28:22;705.70;;;672.63;;
13250;SDS011;6692;50.710;7.180;2022-11-25T02:30:23;720.30;;;686.43;;
13250;SDS011;6692;50.710;7.180;2022-11-25T02:32:24;733.77;;;699.33;;
13250;SDS011;6692;50.710;7.180;2022-11-25T02:34:25;723.67;;;689.43;;
13250;SDS011;6692;50.710;7.180;2022-11-25T02:36:25;730.63;;;696.17;;
13250;SDS011;6692;50.710;7.180;2022-11-25T02:40:40;698.90;;;666.70;;
13250;SDS011;6692;50.710;7.180;2022-11-25T02:42:55;703.13;;;670.63;;
13250;SDS011;6692;50.710;7.180;2022-11-25T02:44:55;716.67;;;682.93;;
13250;SDS011;6692;50.710;7.180;2022-11-25T02:46:56;718.83;;;685.13;;
13250;SDS011;6692;50.710;7.180;2022-11-25T02:48:57;704.57;;;671.73;;
13250;SDS011;6692;50.710;7.180;2022-11-25T02:50:58;713.70;;;680.07;;
13250;SDS011;6692;50.710;7.180;2022-11-25T02:52:58;711.07;;;677.87;;
13250;SDS011;6692;50.710;7.180;2022-11-25T02:54:58;700.10;;;667.53;;
13250;SDS011;6692;50.710;7.180;2022-11-25T02:56:59;711.07;;;678.23;;
13250;SDS011;6692;50.710;7.180;2022-11-25T02:59:00;713.40;;;680.20;;
13250;SDS011;6692;50.710;7.180;2022-11-25T03:01:00;694.40;;;662.50;;
13250;SDS011;6692;50.710;7.180;2022-11-25T03:03:01;698.23;;;666.33;;
13250;SDS011;6692;50.710;7.180;2022-11-25T03:05:02;698.20;;;666.13;;
13250;SDS011;6692;50.710;7.180;2022-11-25T03:07:03;681.10;;;649.73;;
13250;SDS011;6692;50.710;7.180;2022-11-25T03:09:04;684.50;;;653.27;;
13250;SDS011;6692;50.710;7.180;2022-11-25T03:11:05;696.60;;;664.33;;
13250;SDS011;6692;50.710;7.180;2022-11-25T03:13:06;687.27;;;655.73;;
13250;SDS011;6692;50.710;7.180;2022-11-25T03:15:06;684.93;;;653.73;;
13250;SDS011;6692;50.710;7.180;2022-11-25T03:17:09;694.67;;;662.93;;
13250;SDS011;6692;50.710;7.180;2022-11-25T03:19:09;703.03;;;670.73;;
13250;SDS011;6692;50.710;7.180;2022-11-25T03:21:10;698.17;;;666.27;;
13250;SDS011;6692;50.710;7.180;2022-11-25T03:23:11;693.10;;;661.30;;
13250;SDS011;6692;50.710;7.180;2022-11-25T03:25:12;712.07;;;679.30;;
13250;SDS011;6692;50.710;7.180;2022-11-25T03:27:12;705.47;;;672.33;;
13250;SDS011;6692;50.710;7.180;2022-11-25T03:29:13;717.07;;;683.70;;
13250;SDS011;6692;50.710;7.180;2022-11-25T03:31:13;709.10;;;676.00;;
13250;SDS011;6692;50.710;7.180;2022-11-25T03:33:15;705.73;;;673.07;;
13250;SDS011;6692;50.710;7.180;2022-11-25T03:35:16;721.33;;;687.80;;
13250;SDS011;6692;50.710;7.180;2022-11-25T03:37:16;719.73;;;686.20;;
13250;SDS011;6692;50.710;7.180;2022-11-25T03:39:17;708.07;;;675.33;;
13250;SDS011;6692;50.710;7.180;2022-11-25T03:41:18;714.33;;;681.33;;
13250;SDS011;6692;50.710;7.180;2022-11-25T03:43:18;695.97;;;663.97;;
13250;SDS011;6692;50.710;7.180;2022-11-25T03:45:19;712.17;;;679.13;;
13250;SDS011;6692;50.710;7.180;2022-11-25T03:47:20;705.97;;;673.43;;
13250;SDS011;6692;50.710;7.180;2022-11-25T03:49:20;713.77;;;680.07;;
13250;SDS011;6692;50.710;7.180;2022-11-25T03:51:21;699.27;;;666.80;;
13250;SDS011;6692;50.710;7.180;2022-11-25T03:53:22;708.57;;;676.00;;
13250;SDS011;6692;50.710;7.180;2022-11-25T03:55:23;706.23;;;673.40;;
13250;SDS011;6692;50.710;7.180;2022-11-25T03:57:23;698.07;;;666.17;;
13250;SDS011;6692;50.710;7.180;2022-11-25T03:59:24;695.63;;;663.33;;
13250;SDS011;6692;50.710;7.180;2022-11-25T04:01:25;684.20;;;652.93;;
13250;SDS011;6692;50.710;7.180;2022-11-25T04:03:26;696.00;;;663.97;;
13250;SDS011;6692;50.710;7.180;2022-11-25T04:05:27;687.23;;;656.30;;
13250;SDS011;6692;50.710;7.180;2022-11-25T04:07:27;680.27;;;649.30;;
13250;SDS011;6692;50.710;7.180;2022-11-25T04:09:29;688.37;;;656.87;;
13250;SDS011;6692;50.710;7.180;2022-11-25T04:11:30;690.87;;;659.40;;
13250;SDS011;6692;50.710;7.180;2022-11-25T04:13:37;694.20;;;662.93;;
13250;SDS011;6692;50.710;7.180;2022-11-25T04:15:42;683.63;;;652.70;;
13250;SDS011;6692;50.710;7.180;2022-11-25T04:17:39;694.37;;;662.70;;
13250;SDS011;6692;50.710;7.180;2022-11-25T04:19:40;699.40;;;667.10;;
13250;SDS011;6692;50.710;7.180;2022-11-25T04:21:40;702.53;;;670.13;;
13250;SDS011;6692;50.710;7.180;2022-11-25T04:23:41;675.63;;;644.97;;
13250;SDS011;6692;50.710;7.180;2022-11-25T04:25:42;692.00;;;660.13;;
13250;SDS011;6692;50.710;7.180;2022-11-25T04:27:43;700.70;;;668.40;;
13250;SDS011;6692;50.710;7.180;2022-11-25T04:29:44;682.47;;;651.17;;
13250;SDS011;6692;50.710;7.180;2022-11-25T04:31:45;676.07;;;644.53;;
13250;SDS011;6692;50.710;7.180;2022-11-25T04:33:47;679.30;;;648.77;;
13250;SDS011;6692;50.710;7.180;2022-11-25T04:35:48;686.13;;;654.97;;
13250;SDS011;6692;50.710;7.180;2022-11-25T04:37:49;689.37;;;657.70;;
13250;SDS011;6692;50.710;7.180;2022-11-25T04:39:49;684.23;;;652.80;;
13250;SDS011;6692;50.710;7.180;2022-11-25T04:41:50;670.77;;;640.17;;
13250;SDS011;6692;50.710;7.180;2022-11-25T04:43:51;683.63;;;652.10;;
13250;SDS011;6692;50.710;7.180;2022-11-25T04:45:52;679.23;;;648.67;;
13250;SDS011;6692;50.710;7.180;2022-11-25T04:47:53;680.90;;;650.07;;
13250;SDS011;6692;50.710;7.180;2022-11-25T04:49:54;688.33;;;656.77;;
13250;SDS011;6692;50.710;7.180;2022-11-25T04:51:56;689.17;;;657.90;;
13250;SDS011;6692;50.710;7.180;2022-11-25T04:53:56;674.60;;;643.97;;
13250;SDS011;6692;50.710;7.180;2022-11-25T04:55:57;698.13;;;666.33;;
13250;SDS011;6692;50.710;7.180;2022-11-25T04:57:58;679.00;;;648.00;;
13250;SDS011;6692;50.710;7.180;2022-11-25T04:59:59;682.30;;;651.07;;
13250;SDS011;6692;50.710;7.180;2022-11-25T05:03:58;656.63;;;627.07;;
13250;SDS011;6692;50.710;7.180;2022-11-25T05:05:58;677.60;;;646.67;;
13250;SDS011;6692;50.710;7.180;2022-11-25T05:07:59;685.27;;;653.80;;
13250;SDS011;6692;50.710;7.180;2022-11-25T05:10:00;673.97;;;643.03;;
13250;SDS011;6692;50.710;7.180;2022-11-25T05:12:00;677.23;;;646.60;;
13250;SDS011;6692;50.710;7.180;2022-11-25T05:14:01;687.57;;;656.30;;
13250;SDS011;6692;50.710;7.180;2022-11-25T05:16:03;680.07;;;649.27;;
13250;SDS011;6692;50.710;7.180;2022-11-25T05:18:04;691.33;;;659.57;;
13250;SDS011;6692;50.710;7.180;2022-11-25T05:20:05;703.93;;;671.40;;
13250;SDS011;6692;50.710;7.180;2022-11-25T05:22:09;701.17;;;669.07;;
13250;SDS011;6692;50.710;7.180;2022-11-25T05:24:09;694.87;;;663.30;;
13250;SDS011;6692;50.710;7.180;2022-11-25T05:26:10;697.60;;;665.30;;
13250;SDS011;6692;50.710;7.180;2022-11-25T05:28:11;710.67;;;677.97;;
13250;SDS011;6692;50.710;7.180;2022-11-25T05:30:11;700.60;;;668.47;;
13250;SDS011;6692;50.710;7.180;2022-11-25T05:32:13;678.23;;;647.33;;
13250;SDS011;6692;50.710;7.180;2022-11-25T05:34:13;699.63;;;667.33;;
13250;SDS011;6692;50.710;7.180;2022-11-25T05:36:14;696.50;;;664.47;;
13250;SDS011;6692;50.710;7.180;2022-11-25T05:38:14;703.67;;;671.27;;
13250;SDS011;6692;50.710;7.180;2022-11-25T05:40:15;701.50;;;669.37;;
13250;SDS011;6692;50.710;7.180;2022-11-25T05:42:16;698.23;;;666.07;;
13250;SDS011;6692;50.710;7.180;2022-11-25T05:44:16;698.87;;;666.83;;
13250;SDS011;6692;50.710;7.180;2022-11-25T05:46:17;714.57;;;681.63;;
13250;SDS011;6692;50.710;7.180;2022-11-25T05:48:18;691.50;;;659.70;;
13250;SDS011;6692;50.710;7.180;2022-11-25T05:50:18;710.17;;;677.17;;
13250;SDS011;6692;50.710;7.180;2022-11-25T05:52:19;710.23;;;677.30;;
13250;SDS011;6692;50.710;7.180;2022-11-25T05:54:20;719.93;;;686.57;;
13250;SDS011;6692;50.710;7.180;2022-11-25T05:56:20;720.60;;;687.20;;
13250;SDS011;6692;50.710;7.180;2022-11-25T05:58:22;711.37;;;678.53;;
13250;SDS011;6692;50.710;7.180;2022-11-25T06:00:22;713.10;;;679.90;;
13250;SDS011;6692;50.710;7.180;2022-11-25T06:02:23;719.00;;;685.93;;
13250;SDS011;6692;50.710;7.180;2022-11-25T06:04:24;716.73;;;683.67;;
13250;SDS011;6692;50.710;7.180;2022-11-25T06:06:25;712.10;;;678.80;;
13250;SDS011;6692;50.710;7.180;2022-11-25T06:08:26;708.47;;;675.27;;
13250;SDS011;6692;50.710;7.180;2022-11-25T06:10:28;706.93;;;674.20;;
13250;SDS011;6692;50.710;7.180;2022-11-25T06:12:28;707.13;;;674.50;;
13250;SDS011;6692;50.710;7.180;2022-11-25T06:14:29;716.83;;;683.63;;
13250;SDS011;6692;50.710;7.180;2022-11-25T06:16:30;724.83;;;690.63;;
13250;SDS011;6692;50.710;7.180;2022-11-25T06:18:30;709.17;;;676.60;;
13250;SDS011;6692;50.710;7.180;2022-11-25T06:20:32;705.53;;;672.60;;
13250;SDS011;6692;50.710;7.180;2022-11-25T06:22:32;719.07;;;685.73;;
13250;SDS011;6692;50.710;7.180;2022-11-25T06:24:33;725.67;;;691.57;;
13250;SDS011;6692;50.710;7.180;2022-11-25T06:26:34;715.20;;;681.53;;
13250;SDS011;6692;50.710;7.180;2022-11-25T06:28:34;721.93;;;687.30;;
13250;SDS011;6692;50.710;7.180;2022-11-25T06:30:35;711.47;;;678.30;;
13250;SDS011;6692;50.710;7.180;2022-11-25T06:32:36;714.97;;;682.10;;
13250;SDS011;6692;50.710;7.180;2022-11-25T06:34:36;721.07;;;686.40;;
13250;SDS011;6692;50.710;7.180;2022-11-25T06:36:37;728.30;;;693.73;;
13250;SDS011;6692;50.710;7.180;2022-11-25T06:38:38;730.33;;;696.27;;
13250;SDS011;6692;50.710;7.180;2022-11-25T06:40:39;724.47;;;690.93;;
13250;SDS011;6692;50.710;7.180;2022-11-25T06:42:40;704.30;;;671.87;;
13250;SDS011;6692;50.710;7.180;2022-11-25T06:44:41;724.77;;;691.03;;
13250;SDS011;6692;50.710;7.180;2022-11-25T06:46:42;718.37;;;685.57;;
13250;SDS011;6692;50.710;7.180;2022-11-25T06:48:42;717.77;;;684.00;;
13250;SDS011;6692;50.710;7.180;2022-11-25T06:50:43;711.63;;;678.40;;
13250;SDS011;6692;50.710;7.180;2022-11-25T06:52:44;711.83;;;678.93;;
13250;SDS011;6692;50.710;7.180;2022-11-25T06:54:44;717.17;;;683.57;;
13250;SDS011;6692;50.710;7.180;2022-11-25T06:56:45;700.43;;;667.83;;
13250;SDS011;6692;50.710;7.180;2022-11-25T06:58:46;730.77;;;696.63;;
13250;SDS011;6692;50.710;7.180;2022-11-25T07:00:47;708.93;;;676.10;;
13250;SDS011;6692;50.710;7.180;2022-11-25T07:02:48;705.67;;;673.10;;
13250;SDS011;6692;50.710;7.180;2022-11-25T07:04:49;703.37;;;670.53;;
13250;SDS011;6692;50.710;7.180;2022-11-25T07:06:49;709.63;;;677.13;;
13250;SDS011;6692;50.710;7.180;2022-11-25T07:08:50;719.13;;;685.67;;
13250;SDS011;6692;50.710;7.180;2022-11-25T07:10:51;722.67;;;688.87;;
13250;SDS011;6692;50.710;7.180;2022-11-25T07:12:52;703.67;;;671.47;;
13250;SDS011;6692;50.710;7.180;2022-11-25T07:14:53;731.53;;;697.40;;
13250;SDS011;6692;50.710;7.180;2022-11-25T07:16:53;706.63;;;673.63;;
13250;SDS011;6692;50.710;7.180;2022-11-25T07:18:54;707.17;;;674.83;;
13250;SDS011;6692;50.710;7.180;2022-11-25T07:20:55;715.80;;;682.67;;
13250;SDS011;6692;50.710;7.180;2022-11-25T07:22:55;725.00;;;690.80;;
13250;SDS011;6692;50.710;7.180;2022-11-25T07:24:56;720.00;;;686.27;;
13250;SDS011;6692;50.710;7.180;2022-11-25T07:26:57;706.90;;;674.30;;
13250;SDS011;6692;50.710;7.180;2022-11-25T07:28:59;720.43;;;686.87;;
13250;SDS011;6692;50.710;7.180;2022-11-25T07:31:04;725.27;;;691.53;;
13250;SDS011;6692;50.710;7.180;2022-11-25T07:33:08;700.10;;;668.10;;
13250;SDS011;6692;50.710;7.180;2022-11-25T07:35:09;706.87;;;673.90;;
13250;SDS011;6692;50.710;7.180;2022-11-25T07:37:09;704.40;;;671.87;;
13250;SDS011;6692;50.710;7.180;2022-11-25T07:39:13;701.77;;;669.47;;
13250;SDS011;6692;50.710;7.180;2022-11-25T07:41:12;691.23;;;659.40;;
13250;SDS011;6692;50.710;7.180;2022-11-25T07:43:12;679.80;;;648.93;;
13250;SDS011;6692;50.710;7.180;2022-11-25T07:45:13;700.80;;;669.20;;
13250;SDS011;6692;50.710;7.180;2022-11-25T07:47:14;691.77;;;660.03;;
13250;SDS011;6692;50.710;7.180;2022-11-25T07:49:16;683.13;;;652.53;;
13250;SDS011;6692;50.710;7.180;2022-11-25T07:51:18;684.00;;;652.77;;
13250;SDS011;6692;50.710;7.180;2022-11-25T07:53:17;681.70;;;651.03;;
13250;SDS011;6692;50.710;7.180;2022-11-25T07:55:18;678.23;;;647.33;;
13250;SDS011;6692;50.710;7.180;2022-11-25T07:57:19;683.00;;;652.10;;
13250;SDS011;6692;50.710;7.180;2022-11-25T07:59:21;670.57;;;640.43;;
13250;SDS011;6692;50.710;7.180;2022-11-25T08:01:21;675.70;;;645.30;;
13250;SDS011;6692;50.710;7.180;2022-11-25T08:03:21;677.43;;;647.10;;
13250;SDS011;6692;50.710;7.180;2022-11-25T08:05:23;664.77;;;634.77;;
13250;SDS011;6692;50.710;7.180;2022-11-25T08:07:23;673.47;;;643.23;;
13250;SDS011;6692;50.710;7.180;2022-11-25T08:09:24;691.23;;;659.97;;
13250;SDS011;6692;50.710;7.180;2022-11-25T08:11:26;675.63;;;645.00;;
13250;SDS011;6692;50.710;7.180;2022-11-25T08:13:25;671.83;;;641.83;;
13250;SDS011;6692;50.710;7.180;2022-11-25T08:15:26;671.93;;;641.60;;
13250;SDS011;6692;50.710;7.180;2022-11-25T08:17:27;693.63;;;662.63;;
13250;SDS011;6692;50.710;7.180;2022-11-25T08:19:27;688.87;;;657.87;;
13250;SDS011;6692;50.710;7.180;2022-11-25T08:21:28;696.37;;;665.00;;
13250;SDS011;6692;50.710;7.180;2022-11-25T08:23:30;692.30;;;660.53;;
13250;SDS011;6692;50.710;7.180;2022-11-25T08:25:32;692.40;;;660.53;;
13250;SDS011;6692;50.710;7.180;2022-11-25T08:27:32;706.43;;;673.77;;
13250;SDS011;6692;50.710;7.180;2022-11-25T08:29:34;712.30;;;679.20;;
13250;SDS011;6692;50.710;7.180;2022-11-25T08:31:36;708.90;;;675.77;;
13250;SDS011;6692;50.710;7.180;2022-11-25T08:33:35;723.73;;;690.10;;
13250;SDS011;6692;50.710;7.180;2022-11-25T08:35:36;723.80;;;689.83;;
13250;SDS011;6692;50.710;7.180;2022-11-25T08:37:36;724.83;;;690.93;;
13250;SDS011;6692;50.710;7.180;2022-11-25T08:39:37;717.57;;;684.57;;
13250;SDS011;6692;50.710;7.180;2022-11-25T08:41:38;710.57;;;677.70;;
13250;SDS011;6692;50.710;7.180;2022-11-25T08:43:39;704.73;;;672.37;;
13250;SDS011;6692;50.710;7.180;2022-11-25T08:45:40;711.63;;;679.03;;
13250;SDS011;6692;50.710;7.180;2022-11-25T08:47:41;706.60;;;674.23;;
13250;SDS011;6692;50.710;7.180;2022-11-25T08:49:42;691.57;;;659.33;;
13250;SDS011;6692;50.710;7.180;2022-11-25T08:51:44;705.17;;;672.93;;
13250;SDS011;6692;50.710;7.180;2022-11-25T08:53:44;705.37;;;672.77;;
13250;SDS011;6692;50.710;7.180;2022-11-25T08:55:45;692.63;;;660.40;;
13250;SDS011;6692;50.710;7.180;2022-11-25T08:57:46;699.50;;;667.10;;
13250;SDS011;6692;50.710;7.180;2022-11-25T08:59:47;705.13;;;673.23;;
13250;SDS011;6692;50.710;7.180;2022-11-25T09:01:48;708.50;;;676.20;;
13250;SDS011;6692;50.710;7.180;2022-11-25T09:03:50;709.33;;;676.60;;
13250;SDS011;6692;50.710;7.180;2022-11-25T09:05:50;702.60;;;670.20;;
13250;SDS011;6692;50.710;7.180;2022-11-25T09:07:50;706.30;;;673.87;;
13250;SDS011;6692;50.710;7.180;2022-11-25T09:09:52;688.90;;;657.73;;
13250;SDS011;6692;50.710;7.180;2022-11-25T09:11:53;706.33;;;673.83;;
13250;SDS011;6692;50.710;7.180;2022-11-25T09:13:53;705.27;;;672.93;;
13250;SDS011;6692;50.710;7.180;2022-11-25T09:15:55;698.70;;;666.70;;
13250;SDS011;6692;50.710;7.180;2022-11-25T09:17:57;703.30;;;670.37;;
13250;SDS011;6692;50.710;7.180;2022-11-25T09:19:57;728.00;;;694.07;;
13250;SDS011;6692;50.710;7.180;2022-11-25T09:21:58;711.57;;;678.80;;
13250;SDS011;6692;50.710;7.180;2022-11-25T09:23:58;724.93;;;691.30;;
13250;SDS011;6692;50.710;7.180;2022-11-25T09:25:59;716.50;;;683.50;;
13250;SDS011;6692;50.710;7.180;2022-11-25T09:28:00;705.97;;;673.43;;
13250;SDS011;6692;50.710;7.180;2022-11-25T09:30:00;716.77;;;683.70;;
13250;SDS011;6692;50.710;7.180;2022-11-25T09:32:02;715.70;;;682.57;;
13250;SDS011;6692;50.710;7.180;2022-11-25T09:34:03;719.83;;;686.43;;
13250;SDS011;6692;50.710;7.180;2022-11-25T09:36:05;734.43;;;699.80;;
13250;SDS011;6692;50.710;7.180;2022-11-25T09:38:07;722.40;;;688.77;;
13250;SDS011;6692;50.710;7.180;2022-11-25T09:40:13;737.63;;;703.17;;
13250;SDS011;6692;50.710;7.180;2022-11-25T09:42:22;707.83;;;674.90;;
13250;SDS011;6692;50.710;7.180;2022-11-25T09:44:32;704.27;;;671.67;;
13250;SDS011;6692;50.710;7.180;2022-11-25T09:48:59;690.50;;;658.43;;
13250;SDS011;6692;50.710;7.180;2022-11-25T09:51:33;719.13;;;685.37;;
13250;SDS011;6692;50.710;7.180;2022-11-25T09:53:23;712.90;;;680.00;;
13250;SDS011;6692;50.710;7.180;2022-11-25T09:55:32;710.13;;;677.43;;
13250;SDS011;6692;50.710;7.180;2022-11-25T09:57:41;724.10;;;690.20;;
13250;SDS011;6692;50.710;7.180;2022-11-25T09:59:38;723.43;;;689.83;;
13250;SDS011;6692;50.710;7.180;2022-11-25T10:01:42;725.40;;;691.50;;
13250;SDS011;6692;50.710;7.180;2022-11-25T10:03:42;715.37;;;681.93;;
13250;SDS011;6692;50.710;7.180;2022-11-25T10:05:48;728.30;;;694.07;;
13250;SDS011;6692;50.710;7.180;2022-11-25T10:07:51;727.37;;;693.30;;
13250;SDS011;6692;50.710;7.180;2022-11-25T10:09:51;739.13;;;704.27;;
13250;SDS011;6692;50.710;7.180;2022-11-25T10:11:53;736.53;;;701.57;;
13250;SDS011;6692;50.710;7.180;2022-11-25T10:13:57;744.93;;;709.63;;
13250;SDS011;6692;50.710;7.180;2022-11-25T10:15:56;739.10;;;703.80;;
13250;SDS011;6692;50.710;7.180;2022-11-25T10:18:00;755.57;;;719.07;;
13250;SDS011;6692;50.710;7.180;2022-11-25T10:20:02;753.07;;;717.63;;
13250;SDS011;6692;50.710;7.180;2022-11-25T10:22:21;723.30;;;689.53;;
13250;SDS011;6692;50.710;7.180;2022-11-25T10:24:20;726.03;;;692.03;;
13250;SDS011;6692;50.710;7.180;2022-11-25T10:26:22;744.77;;;709.57;;
13250;SDS011;6692;50.710;7.180;2022-11-25T10:28:24;733.83;;;699.07;;
13250;SDS011;6692;50.710;7.180;2022-11-25T10:30:29;754.40;;;718.70;;
13250;SDS011;6692;50.710;7.180;2022-11-25T10:32:27;760.97;;;724.47;;
13250;SDS011;6692;50.710;7.180;2022-11-25T10:34:32;762.77;;;726.43;;
13250;SDS011;6692;50.710;7.180;2022-11-25T10:36:33;737.77;;;702.17;;
13250;SDS011;6692;50.710;7.180;2022-11-25T10:38:34;745.77;;;710.30;;
13250;SDS011;6692;50.710;7.180;2022-11-25T10:40:35;762.37;;;725.50;;
13250;SDS011;6692;50.710;7.180;2022-11-25T10:42:36;770.03;;;732.23;;
13250;SDS011;6692;50.710;7.180;2022-11-25T10:44:38;773.73;;;735.57;;
13250;SDS011;6692;50.710;7.180;2022-11-25T10:46:43;783.53;;;744.90;;
13250;SDS011;6692;50.710;7.180;2022-11-25T10:48:47;787.07;;;747.40;;
13250;SDS011;6692;50.710;7.180;2022-11-25T10:50:52;792.20;;;753.00;;
13250;SDS011;6692;50.710;7.180;2022-11-25T10:53:09;796.73;;;757.17;;
13250;SDS011;6692;50.710;7.180;2022-11-25T10:55:11;784.40;;;745.23;;
13250;SDS011;6692;50.710;7.180;2022-11-25T10:57:15;790.33;;;751.10;;
13250;SDS011;6692;50.710;7.180;2022-11-25T10:59:20;784.43;;;745.73;;
13250;SDS011;6692;50.710;7.180;2022-11-25T11:01:21;800.50;;;760.20;;
13250;SDS011;6692;50.710;7.180;2022-11-25T11:03:22;789.97;;;750.60;;
13250;SDS011;6692;50.710;7.180;2022-11-25T11:05:23;793.23;;;753.10;;
13250;SDS011;6692;50.710;7.180;2022-11-25T11:07:27;798.97;;;759.20;;
13250;SDS011;6692;50.710;7.180;2022-11-25T11:09:29;801.50;;;760.70;;
13250;SDS011;6692;50.710;7.180;2022-11-25T11:11:28;822.00;;;779.83;;
13250;SDS011;6692;50.710;7.180;2022-11-25T11:13:29;842.13;;;798.33;;
13250;SDS011;6692;50.710;7.180;2022-11-25T11:15:31;832.70;;;789.23;;
13250;SDS011;6692;50.710;7.180;2022-11-25T11:17:32;824.50;;;782.27;;
13250;SDS011;6692;50.710;7.180;2022-11-25T11:19:32;819.43;;;777.43;;
13250;SDS011;6692;50.710;7.180;2022-11-25T11:21:33;822.20;;;779.50;;
13250;SDS011;6692;50.710;7.180;2022-11-25T11:27:59;805.10;;;764.43;;
13250;SDS011;6692;50.710;7.180;2022-11-25T11:32:19;810.40;;;769.70;;
13250;SDS011;6692;50.710;7.180;2022-11-25T11:34:30;782.63;;;743.63;;
13250;SDS011;6692;50.710;7.180;2022-11-25T11:36:40;780.77;;;741.40;;
13250;SDS011;6692;50.710;7.180;2022-11-25T11:38:47;777.30;;;738.97;;
13250;SDS011;6692;50.710;7.180;2022-11-25T11:40:48;782.20;;;742.93;;
13250;SDS011;6692;50.710;7.180;2022-11-25T11:45:11;681.47;;;650.37;;
13250;SDS011;6692;50.710;7.180;2022-11-25T11:49:29;711.33;;;678.17;;
13250;SDS011;6692;50.710;7.180;2022-11-25T11:51:29;679.20;;;648.00;;
13250;SDS011;6692;50.710;7.180;2022-11-25T11:53:32;697.70;;;665.30;;
13250;SDS011;6692;50.710;7.180;2022-11-25T11:55:34;737.80;;;702.97;;
13250;SDS011;6692;50.710;7.180;2022-11-25T11:57:43;779.50;;;741.50;;
13250;SDS011;6692;50.710;7.180;2022-11-25T11:59:46;796.03;;;755.63;;
13250;SDS011;6692;50.710;7.180;2022-11-25T12:01:57;807.23;;;766.10;;
13250;SDS011;6692;50.710;7.180;2022-11-25T12:04:16;764.17;;;726.27;;